KFHR

Details ICAO KFHR (FRD)
Name FRIDAY HARBOR
Region United States
Timezone America/Los_Angeles (UTC-8.0)
Plans Departing 57
Arriving 27
Stats Elevation 113 ft / 34 m (AMSL)
Location 48.521966° -123.024368°
Runways 1
Magnetic Variation 16.071° E
Sunrise 2017-12-18 16:01:13 UTC / 2017-12-18 08:01:13 Local
Sunset 2017-12-19 00:19:14 UTC / 2017-12-18 16:19:14 Local
Advertisement - Login to hide

Runways

ID Width Length Bearing (true) Bearing (mag) Surface Threshold Offset Overrun Length
16 75 ft / 23 m 3,402 ft / 1,037 m 177.06° 160.99° Asphalt 0 ft / 0 m 0 ft / 0 m
34 75 ft / 23 m 3,402 ft / 1,037 m 357.06° 340.99° Asphalt 0 ft / 0 m 0 ft / 0 m

Map

Weather


0- 5 10 15 20 25 30 35+ Temperature / ° C

Clouds and Precipitation
Forecast for 2017-12-19 00:00 UTC. Updated an hour ago

Ground ~20,000 ft ~40,000 ft Winds

METAR

KFHR 181953Z AUTO 00000KT 10SM CLR 07/06 A3011 RMK AO2 SLP198 T00720061

TAF

Not found

Frequencies

Recorded 135.67 MHz ASOS
Approach 118.20 MHz WHIDBEY APP/DEP
Unicom 128.25 MHz CTAF
Warning: Do not use this data for real-world aviation or navigation. No guarantee of current accuracy is given.